MacAlister, Canada
Current Conditions -  °F | °C
As of 12:00 AM on Sunday 23 Nov 2014 (Local Time) from CYWL Reporting Station
Scattered Clouds Scattered Clouds  
Wind Chill: 20°   Ceiling: Unl
Heat Index: 28°   Visibility: 15mi
Dew Point: 23°   Wind: 8mph
Humidity: 80%   Direction: 120°ESE
Pressure: 29.78"   Gusts: NA
Location:  52.45°N, 122.4°W
Report Text: CYWL 230800Z 12007KT 15SM SCT060 M02/M05 A2978 RMK SC3 SLP120
Loading
Personal Weather Stations






























Interactive Weather Map New forecast layout! Learn more

10-Day Weather Forecast

Advertisements
Track Severe Weather on mobile